createdAt,value
2018-05-23T00:02:00.783Z,4.23
2018-05-23T00:04:29.477Z,4.60
2018-05-23T00:06:58.856Z,4.63
2018-05-23T00:09:27.412Z,4.40
2018-05-23T00:11:55.266Z,4.40
2018-05-23T00:14:23.738Z,4.10
2018-05-23T00:16:53.648Z,4.70
2018-05-23T00:19:22.065Z,4.70
2018-05-23T00:21:49.638Z,4.53
2018-05-23T00:24:17.163Z,4.37
2018-05-23T00:26:45.566Z,4.03
2018-05-23T00:29:14.487Z,4.07
2018-05-23T00:31:42.819Z,4.40
2018-05-23T00:34:10.350Z,4.83
2018-05-23T00:36:37.885Z,5.10
2018-05-23T00:39:05.409Z,4.27
2018-05-23T00:41:32.971Z,4.00
2018-05-23T00:44:00.631Z,4.60
2018-05-23T00:46:28.173Z,4.67
2018-05-23T00:48:55.718Z,4.90
2018-05-23T00:51:23.245Z,4.77
2018-05-23T00:53:50.791Z,5.00
2018-05-23T00:56:18.365Z,4.67
2018-05-23T00:58:45.932Z,4.83
2018-05-23T01:01:14.224Z,4.20
2018-05-23T01:03:41.769Z,4.95
2018-05-23T01:06:10.068Z,4.40
2018-05-23T01:08:37.615Z,5.77
2018-05-23T01:11:05.149Z,4.90
2018-05-23T01:13:32.737Z,4.37
2018-05-23T01:16:00.341Z,5.67
2018-05-23T01:18:27.892Z,5.27
2018-05-23T01:20:55.416Z,5.07
2018-05-23T01:23:22.968Z,6.10
2018-05-23T01:25:50.492Z,5.07
2018-05-23T01:28:18.055Z,5.50
2018-05-23T01:30:45.628Z,5.97
2018-05-23T01:33:13.176Z,5.50
2018-05-23T01:35:40.801Z,5.93
2018-05-23T01:38:09.577Z,6.90
2018-05-23T01:40:37.099Z,6.23
2018-05-23T01:43:04.653Z,6.07
2018-05-23T01:45:32.183Z,6.20
2018-05-23T01:47:59.919Z,6.03
2018-05-23T01:50:28.207Z,5.73
2018-05-23T01:52:55.761Z,6.15
2018-05-23T01:55:23.284Z,6.20
2018-05-23T01:57:50.819Z,6.20
2018-05-23T02:00:18.352Z,5.43
2018-05-23T02:02:46.662Z,6.50
2018-05-23T02:05:14.208Z,6.43
2018-05-23T02:07:41.760Z,5.97
2018-05-23T02:10:09.285Z,6.45
2018-05-23T02:12:36.833Z,6.57
2018-05-23T02:15:04.531Z,5.13
2018-05-23T02:17:32.739Z,6.83
2018-05-23T02:20:01.716Z,5.40
2018-05-23T02:22:29.237Z,6.47
2018-05-23T02:24:56.912Z,6.70
2018-05-23T02:27:24.440Z,5.57
2018-05-23T02:29:51.987Z,5.93
2018-05-23T02:32:19.508Z,6.00
2018-05-23T02:34:47.055Z,6.10
2018-05-23T02:37:14.631Z,5.50
2018-05-23T02:39:42.176Z,6.57
2018-05-23T02:42:09.716Z,6.13
2018-05-23T02:44:37.269Z,5.68
2018-05-23T02:47:04.798Z,6.93
2018-05-23T02:49:32.344Z,6.43
2018-05-23T02:51:59.934Z,6.07
2018-05-23T02:54:27.857Z,7.30
2018-05-23T02:56:55.374Z,7.20
2018-05-23T02:59:23.003Z,7.27
2018-05-23T03:01:50.612Z,7.17
2018-05-23T03:04:18.180Z,8.20
2018-05-23T03:06:46.499Z,7.27
2018-05-23T03:09:20.554Z,7.70
2018-05-23T03:11:48.958Z,7.47
2018-05-23T03:14:19.807Z,8.43
2018-05-23T03:16:48.198Z,8.57
2018-05-23T03:19:17.401Z,8.57
2018-05-23T03:21:44.923Z,7.40
2018-05-23T03:24:13.221Z,7.27
2018-05-23T03:26:40.748Z,7.53
2018-05-23T03:29:08.323Z,7.10
2018-05-23T03:31:35.971Z,7.50
2018-05-23T03:34:03.513Z,7.10
2018-05-23T03:36:31.069Z,7.07
2018-05-23T03:38:58.613Z,7.57
2018-05-23T03:41:27.092Z,7.50
2018-05-23T03:43:54.644Z,7.43
2018-05-23T03:46:22.168Z,7.50
2018-05-23T03:48:49.733Z,8.10
2018-05-23T03:51:18.031Z,7.80
2018-05-23T03:53:45.568Z,7.80
2018-05-23T03:56:13.860Z,7.97
2018-05-23T03:58:42.248Z,7.40
2018-05-23T04:01:21.735Z,7.80
2018-05-23T04:04:01.359Z,7.47
2018-05-23T04:06:42.150Z,8.60
2018-05-23T04:09:09.707Z,7.70
2018-05-23T04:11:37.990Z,8.30
2018-05-23T04:14:06.296Z,8.57
2018-05-23T04:16:34.136Z,8.03
2018-05-23T04:19:01.692Z,7.50
2018-05-23T04:21:29.875Z,7.30
2018-05-23T04:23:57.442Z,7.83
2018-05-23T04:26:25.736Z,8.20
2018-05-23T04:28:53.264Z,8.10
2018-05-23T04:31:21.584Z,8.10
2018-05-23T04:33:49.121Z,7.77
2018-05-23T04:36:16.811Z,6.90
2018-05-23T04:38:45.090Z,7.80
2018-05-23T04:41:12.631Z,8.77
2018-05-23T04:43:40.911Z,7.93
2018-05-23T04:46:08.483Z,8.57
2018-05-23T04:48:36.016Z,7.80
2018-05-23T04:51:03.565Z,8.13
2018-05-23T04:53:31.089Z,8.13
2018-05-23T04:55:58.644Z,8.33
2018-05-23T04:58:26.216Z,8.87
2018-05-23T05:00:53.779Z,8.00
2018-05-23T05:03:21.307Z,8.50
2018-05-23T05:05:48.851Z,8.13
2018-05-23T05:08:16.383Z,8.23
2018-05-23T05:10:44.734Z,7.40
2018-05-23T05:13:12.265Z,8.10
2018-05-23T05:15:39.841Z,7.70
2018-05-23T05:18:09.049Z,7.80
2018-05-23T05:20:36.737Z,8.27
2018-05-23T05:23:04.292Z,8.07
2018-05-23T05:25:31.844Z,7.43
2018-05-23T05:27:59.393Z,7.50
2018-05-23T05:30:26.936Z,8.00
2018-05-23T05:32:54.455Z,8.23
2018-05-23T05:35:22.023Z,7.20
2018-05-23T05:37:49.547Z,7.77
2018-05-23T05:40:17.129Z,8.20
2018-05-23T05:42:48.824Z,7.53
2018-05-23T05:45:16.380Z,7.93
2018-05-23T05:47:43.963Z,7.47
2018-05-23T05:50:12.335Z,7.30
2018-05-23T05:52:39.868Z,7.30
2018-05-23T05:55:08.384Z,6.97
2018-05-23T05:57:36.814Z,6.80
2018-05-23T06:00:04.439Z,7.63
2018-05-23T06:02:32.890Z,7.20
2018-05-23T06:05:00.441Z,6.87
2018-05-23T06:07:28.031Z,6.63
2018-05-23T06:09:56.343Z,6.40
2018-05-23T06:12:23.895Z,6.27
2018-05-23T06:14:51.458Z,5.90
2018-05-23T06:17:19.960Z,6.83
2018-05-23T06:19:47.517Z,6.20
2018-05-23T06:22:16.780Z,5.40
2018-05-23T06:24:44.310Z,5.50
2018-05-23T06:27:12.654Z,6.40
2018-05-23T06:29:40.193Z,5.63
2018-05-23T06:32:09.762Z,6.00
2018-05-23T06:34:37.295Z,6.67
2018-05-23T06:37:04.979Z,6.10
2018-05-23T06:39:32.989Z,5.78
2018-05-23T06:42:00.674Z,5.90
2018-05-23T06:44:28.264Z,5.93
2018-05-23T06:46:58.612Z,5.13
2018-05-23T06:49:26.209Z,5.47
2018-05-23T06:51:54.554Z,5.63
2018-05-23T06:54:22.351Z,5.40
2018-05-23T06:56:50.668Z,6.03
2018-05-23T06:59:18.208Z,5.30
2018-05-23T07:01:46.777Z,5.50
2018-05-23T07:04:14.304Z,6.03
2018-05-23T07:06:41.865Z,6.17
2018-05-23T07:09:09.404Z,5.60
2018-05-23T07:11:37.169Z,4.80
2018-05-23T07:14:05.008Z,5.17
2018-05-23T07:16:33.308Z,4.50
2018-05-23T07:19:01.621Z,5.13
2018-05-23T07:21:29.207Z,5.10
2018-05-23T07:23:56.790Z,4.30
2018-05-23T07:26:24.649Z,4.30
2018-05-23T07:28:52.204Z,4.20
2018-05-23T07:31:19.775Z,5.27
2018-05-23T07:33:47.386Z,4.30
2018-05-23T07:36:14.907Z,4.40
2018-05-23T07:38:44.672Z,4.77
2018-05-23T07:41:13.014Z,4.80
2018-05-23T07:43:40.568Z,4.93
2018-05-23T07:46:10.660Z,4.30
2018-05-23T07:48:38.209Z,4.60
2018-05-23T07:51:05.923Z,4.50
2018-05-23T07:53:35.070Z,4.62
2018-05-23T07:56:03.062Z,4.17
2018-05-23T07:58:30.687Z,4.53
2018-05-23T08:00:59.002Z,4.20
2018-05-23T08:03:26.562Z,4.23
2018-05-23T08:05:54.092Z,4.70
2018-05-23T08:08:21.731Z,4.50
2018-05-23T08:10:49.264Z,5.03
2018-05-23T08:13:16.896Z,4.17
2018-05-23T08:15:44.423Z,4.30
2018-05-23T08:18:12.083Z,3.90
2018-05-23T08:20:39.732Z,4.20
2018-05-23T08:23:07.291Z,3.97
2018-05-23T08:25:35.032Z,4.30
2018-05-23T08:28:02.605Z,4.30
2018-05-23T08:30:31.149Z,4.40
2018-05-23T08:32:58.732Z,4.10
2018-05-23T08:35:27.049Z,4.17
2018-05-23T08:37:54.751Z,5.03
2018-05-23T08:40:22.278Z,4.30
2018-05-23T08:42:51.619Z,4.57
2018-05-23T08:45:19.139Z,4.30
2018-05-23T08:47:47.451Z,4.40
2018-05-23T08:50:14.980Z,3.70
2018-05-23T08:52:43.583Z,4.23
2018-05-23T08:55:11.119Z,4.37
2018-05-23T08:57:38.666Z,4.70
2018-05-23T09:00:09.106Z,4.53
2018-05-23T09:02:37.393Z,4.80
2018-05-23T09:05:04.992Z,5.23
2018-05-23T09:07:33.319Z,4.17
2018-05-23T09:10:00.858Z,3.90
2018-05-23T09:12:28.491Z,4.70
2018-05-23T09:14:56.897Z,4.00
2018-05-23T09:17:24.682Z,3.93
2018-05-23T09:19:53.004Z,3.70
2018-05-23T09:22:20.546Z,3.80
2018-05-23T09:24:48.130Z,3.70
2018-05-23T09:27:18.552Z,4.10
2018-05-23T09:29:47.249Z,3.60
2018-05-23T09:32:14.777Z,3.50
2018-05-23T09:34:43.181Z,3.80
2018-05-23T09:37:10.742Z,3.70
2018-05-23T09:39:42.364Z,3.73
2018-05-23T09:42:09.888Z,3.83
2018-05-23T09:44:40.850Z,4.57
2018-05-23T09:47:08.505Z,5.50
2018-05-23T09:49:37.008Z,6.23
2018-05-23T09:52:05.299Z,7.20
2018-05-23T09:54:32.898Z,5.80
2018-05-23T09:57:00.453Z,3.23
2018-05-23T09:59:28.027Z,3.53
2018-05-23T10:01:55.795Z,3.13
2018-05-23T10:04:23.355Z,3.60
2018-05-23T10:06:50.906Z,3.60
2018-05-23T10:09:18.460Z,3.40
2018-05-23T10:11:45.983Z,3.23
2018-05-23T10:14:14.867Z,4.23
2018-05-23T10:16:42.393Z,3.47
2018-05-23T10:19:11.797Z,3.23
2018-05-23T10:21:39.345Z,3.73
2018-05-23T10:24:10.262Z,3.63
2018-05-23T10:26:39.080Z,4.80
2018-05-23T10:29:07.422Z,5.40
2018-05-23T10:31:35.068Z,5.37
2018-05-23T10:34:02.784Z,4.13
2018-05-23T10:36:30.387Z,5.00
2018-05-23T10:38:58.046Z,4.73
2018-05-23T10:41:25.623Z,4.27
2018-05-23T10:43:53.307Z,3.90
2018-05-23T10:46:20.986Z,4.70
2018-05-23T10:48:49.282Z,3.67
2018-05-23T10:51:16.857Z,4.20
2018-05-23T10:53:45.183Z,3.50
2018-05-23T10:56:12.886Z,3.87
2018-05-23T10:58:41.285Z,3.87
2018-05-23T11:01:08.844Z,3.30
2018-05-23T11:03:36.388Z,2.87
2018-05-23T11:06:03.976Z,3.17
2018-05-23T11:08:32.269Z,3.57
2018-05-23T11:10:59.838Z,3.67
2018-05-23T11:13:27.383Z,3.30
2018-05-23T11:15:54.940Z,4.13
2018-05-23T11:18:22.555Z,2.87
2018-05-23T11:20:50.119Z,12.93
2018-05-23T11:23:17.707Z,21.87
2018-05-23T11:25:46.024Z,5.67
2018-05-23T11:28:13.571Z,6.47
2018-05-23T11:30:41.135Z,6.72
2018-05-23T11:33:08.685Z,3.17
2018-05-23T11:35:36.332Z,5.17
2018-05-23T11:38:03.867Z,6.80
2018-05-23T11:40:32.369Z,3.37
2018-05-23T11:43:00.682Z,3.20
2018-05-23T11:45:28.291Z,4.20
2018-05-23T11:47:55.939Z,5.03
2018-05-23T11:50:23.567Z,3.60
2018-05-23T11:52:51.171Z,3.83
2018-05-23T11:55:18.832Z,3.40
2018-05-23T11:57:46.649Z,3.10
2018-05-23T12:00:14.731Z,3.80
2018-05-23T12:02:42.281Z,3.50
2018-05-23T12:05:09.944Z,4.40
2018-05-23T12:07:37.548Z,3.47
2018-05-23T12:10:05.104Z,3.93
2018-05-23T12:12:34.257Z,3.00
2018-05-23T12:15:01.909Z,2.70
2018-05-23T12:17:29.792Z,3.10
2018-05-23T12:19:57.428Z,2.90
2018-05-23T12:22:24.973Z,2.67
2018-05-23T12:24:52.550Z,3.20
2018-05-23T12:27:20.353Z,2.93
2018-05-23T12:29:47.883Z,2.93
2018-05-23T12:32:15.417Z,2.97
2018-05-23T12:34:43.291Z,3.00
2018-05-23T12:37:10.864Z,3.10
2018-05-23T12:39:40.281Z,3.23
2018-05-23T12:42:08.788Z,3.28
2018-05-23T12:44:36.624Z,2.80
2018-05-23T12:47:04.220Z,2.83
2018-05-23T12:49:32.097Z,2.50
2018-05-23T12:51:59.770Z,3.03
2018-05-23T12:54:27.338Z,3.20
2018-05-23T12:57:00.094Z,2.53
2018-05-23T12:59:27.706Z,2.63
2018-05-23T13:01:56.137Z,3.33
2018-05-23T13:04:23.923Z,2.83
2018-05-23T13:06:52.256Z,3.05
2018-05-23T13:09:19.865Z,2.90
2018-05-23T13:11:47.441Z,3.50
2018-05-23T13:14:15.842Z,2.90
2018-05-23T13:16:43.522Z,2.60
2018-05-23T13:19:12.155Z,2.73
2018-05-23T13:21:39.751Z,2.90
2018-05-23T13:24:07.327Z,3.30
2018-05-23T13:26:36.409Z,3.70
2018-05-23T13:29:03.937Z,3.63
2018-05-23T13:31:31.489Z,2.83
2018-05-23T13:33:59.097Z,2.27
2018-05-23T13:36:26.814Z,2.70
2018-05-23T13:38:54.391Z,2.73
2018-05-23T13:41:21.992Z,2.72
2018-05-23T13:43:50.316Z,2.20
2018-05-23T13:46:17.987Z,3.00
2018-05-23T13:48:45.530Z,2.60
2018-05-23T13:51:15.099Z,2.50
2018-05-23T13:53:43.385Z,2.95
2018-05-23T13:56:15.767Z,2.33
2018-05-23T13:58:43.622Z,2.50
2018-05-23T14:01:11.947Z,2.97
2018-05-23T14:03:39.730Z,3.07
2018-05-23T14:06:08.264Z,3.30
2018-05-23T14:08:35.933Z,3.00
2018-05-23T14:11:03.877Z,2.77
2018-05-23T14:13:32.842Z,2.73
2018-05-23T14:16:00.430Z,2.83
2018-05-23T14:18:28.084Z,3.03
2018-05-23T14:20:56.578Z,3.40
2018-05-23T14:23:24.357Z,2.60
2018-05-23T14:25:51.911Z,2.90
2018-05-23T14:28:21.355Z,2.20
2018-05-23T14:30:48.935Z,2.00
2018-05-23T14:33:16.651Z,1.90
2018-05-23T14:35:44.950Z,2.90
2018-05-23T14:38:12.851Z,2.67
2018-05-23T14:40:40.663Z,2.60
2018-05-23T14:43:08.277Z,3.13
2018-05-23T14:45:35.929Z,2.50
2018-05-23T14:48:03.593Z,2.93
2018-05-23T14:50:31.394Z,2.30
2018-05-23T14:52:59.067Z,1.80
2018-05-23T14:55:26.647Z,1.93
2018-05-23T14:57:54.276Z,2.93
2018-05-23T15:00:23.058Z,1.80
2018-05-23T15:02:50.691Z,2.62
2018-05-23T15:05:18.361Z,2.15
2018-05-23T15:07:48.054Z,2.03
2018-05-23T15:10:16.455Z,2.10
2018-05-23T15:12:49.256Z,2.80
2018-05-23T15:15:19.696Z,2.20
2018-05-23T15:17:47.484Z,3.00
2018-05-23T15:20:15.085Z,4.40
2018-05-23T15:22:42.655Z,2.20
2018-05-23T15:25:11.103Z,5.23
2018-05-23T15:27:38.748Z,2.20
2018-05-23T15:30:07.472Z,2.00
2018-05-23T15:32:35.151Z,2.83
2018-05-23T15:35:05.756Z,2.00
2018-05-23T15:37:33.366Z,2.10
2018-05-23T15:40:01.176Z,2.17
2018-05-23T15:42:29.046Z,2.40
2018-05-23T15:45:02.216Z,2.20
2018-05-23T15:47:30.626Z,2.33
2018-05-23T15:49:58.224Z,2.93
2018-05-23T15:52:25.973Z,2.70
2018-05-23T15:54:57.197Z,4.12
2018-05-23T15:57:27.535Z,3.07
2018-05-23T15:59:55.506Z,3.03
2018-05-23T16:02:23.179Z,2.60
2018-05-23T16:04:50.742Z,2.40
2018-05-23T16:07:18.285Z,2.80
2018-05-23T16:09:46.929Z,2.30
2018-05-23T16:12:15.499Z,3.57
2018-05-23T16:14:44.652Z,2.87
2018-05-23T16:17:12.894Z,3.50
2018-05-23T16:19:41.322Z,2.47
2018-05-23T16:22:08.913Z,3.03
2018-05-23T16:24:37.737Z,3.30
2018-05-23T16:27:06.020Z,2.43
2018-05-23T16:29:34.431Z,2.62
2018-05-23T16:32:02.042Z,2.90
2018-05-23T16:34:30.411Z,2.60
2018-05-23T16:36:58.861Z,2.37
2018-05-23T16:39:29.277Z,3.90
2018-05-23T16:41:56.844Z,2.30
2018-05-23T16:44:25.262Z,2.60
2018-05-23T16:46:53.528Z,3.03
2018-05-23T16:49:21.079Z,3.30
2018-05-23T16:51:48.632Z,3.27
2018-05-23T16:54:16.317Z,3.00
2018-05-23T16:56:43.899Z,4.43
2018-05-23T16:59:12.220Z,7.23
2018-05-23T17:01:39.763Z,4.30
2018-05-23T17:04:07.325Z,3.53
2018-05-23T17:06:35.114Z,4.27
2018-05-23T17:09:02.695Z,6.70
2018-05-23T17:11:31.084Z,3.90
2018-05-23T17:13:58.661Z,4.10
2018-05-23T17:16:30.494Z,4.07
2018-05-23T17:18:58.092Z,8.45
2018-05-23T17:21:27.396Z,2.53
2018-05-23T17:23:55.106Z,3.50
2018-05-23T17:26:22.644Z,6.13
2018-05-23T17:28:51.524Z,4.30
2018-05-23T17:31:19.236Z,3.90
2018-05-23T17:33:47.100Z,8.83
2018-05-23T17:36:14.775Z,3.53
2018-05-23T17:38:42.323Z,5.53
2018-05-23T17:41:12.509Z,6.77
2018-05-23T17:43:40.491Z,15.03
2018-05-23T17:46:08.954Z,12.57
2018-05-23T17:48:36.590Z,19.50
2018-05-23T17:51:04.642Z,7.33
2018-05-23T17:53:32.296Z,3.90
2018-05-23T17:56:00.735Z,3.95
2018-05-23T17:58:28.318Z,4.93
2018-05-23T18:00:55.997Z,4.03
2018-05-23T18:03:29.048Z,4.67
2018-05-23T18:05:56.835Z,15.53
2018-05-23T18:08:25.130Z,7.00
2018-05-23T18:10:53.837Z,4.60
2018-05-23T18:13:22.149Z,3.43
2018-05-23T18:15:49.792Z,3.20
2018-05-23T18:18:17.686Z,6.40
2018-05-23T18:20:46.005Z,4.03
2018-05-23T18:23:13.619Z,6.45
2018-05-23T18:25:42.088Z,5.27
2018-05-23T18:28:09.738Z,4.53
2018-05-23T18:30:37.267Z,13.40
2018-05-23T18:33:05.555Z,5.67
2018-05-23T18:35:33.166Z,4.90
2018-05-23T18:38:01.556Z,5.10
2018-05-23T18:40:29.311Z,4.00
2018-05-23T18:42:57.327Z,5.50
2018-05-23T18:45:25.327Z,5.60
2018-05-23T18:47:52.893Z,5.60
2018-05-23T18:50:20.665Z,6.07
2018-05-23T18:52:48.443Z,4.70
2018-05-23T18:55:16.051Z,7.30
2018-05-23T18:57:47.862Z,7.57
2018-05-23T19:00:15.439Z,9.70
2018-05-23T19:02:42.977Z,6.63
2018-05-23T19:05:10.808Z,8.00
2018-05-23T19:07:38.338Z,7.30
2018-05-23T19:10:07.263Z,5.10
2018-05-23T19:12:34.839Z,3.73
2018-05-23T19:15:03.132Z,3.33
2018-05-23T19:17:30.720Z,3.30
2018-05-23T19:19:58.391Z,3.77
2018-05-23T19:22:26.822Z,3.67
2018-05-23T19:24:54.354Z,5.07
2018-05-23T19:27:21.896Z,3.70
2018-05-23T19:29:50.923Z,4.53
2018-05-23T19:32:18.492Z,3.83
2018-05-23T19:34:47.890Z,3.50
2018-05-23T19:37:15.864Z,3.87
2018-05-23T19:39:43.698Z,4.53
2018-05-23T19:42:11.225Z,3.83
2018-05-23T19:44:38.751Z,4.20
2018-05-23T19:47:07.183Z,3.87
2018-05-23T19:49:34.909Z,4.20
2018-05-23T19:52:02.646Z,4.20
2018-05-23T19:54:30.204Z,4.17
2018-05-23T19:56:58.156Z,3.90
2018-05-23T19:59:25.707Z,3.33
2018-05-23T20:01:53.267Z,3.60
2018-05-23T20:04:20.895Z,4.03
2018-05-23T20:06:48.484Z,3.70
2018-05-23T20:09:16.920Z,4.20
2018-05-23T20:11:44.483Z,4.17
2018-05-23T20:14:12.190Z,4.27
2018-05-23T20:16:40.996Z,4.83
2018-05-23T20:19:08.546Z,4.47
2018-05-23T20:21:36.888Z,4.77
2018-05-23T20:24:05.379Z,5.00
2018-05-23T20:26:33.059Z,4.35
2018-05-23T20:29:00.683Z,4.53
2018-05-23T20:31:28.412Z,3.90
2018-05-23T20:33:55.935Z,4.20
2018-05-23T20:36:25.250Z,4.30
2018-05-23T20:38:53.252Z,4.00
2018-05-23T20:41:21.093Z,3.70
2018-05-23T20:43:48.804Z,3.40
2018-05-23T20:46:16.332Z,3.87
2018-05-23T20:48:43.964Z,5.53
2018-05-23T20:51:11.943Z,4.17
2018-05-23T20:53:39.559Z,3.93
2018-05-23T20:56:08.439Z,4.43
2018-05-23T20:58:36.159Z,4.10
2018-05-23T21:01:03.618Z,5.60
2018-05-23T21:03:31.168Z,4.50
2018-05-23T21:05:58.744Z,3.90
2018-05-23T21:08:27.739Z,4.93
2018-05-23T21:10:55.956Z,4.13
2018-05-23T21:13:23.806Z,4.37
2018-05-23T21:15:53.261Z,3.87
2018-05-23T21:18:22.259Z,4.60
2018-05-23T21:20:49.873Z,4.10
2018-05-23T21:23:17.436Z,4.23
2018-05-23T21:25:45.057Z,4.60
2018-05-23T21:28:13.727Z,4.05
2018-05-23T21:30:42.074Z,4.40
2018-05-23T21:33:10.463Z,4.10
2018-05-23T21:35:38.753Z,4.50
2018-05-23T21:38:06.619Z,3.90
2018-05-23T21:40:34.167Z,4.30
2018-05-23T21:43:01.751Z,3.70
2018-05-23T21:45:30.054Z,4.60
2018-05-23T21:47:57.620Z,4.47
2018-05-23T21:50:25.472Z,4.20
2018-05-23T21:52:53.193Z,4.23
2018-05-23T21:55:21.465Z,3.83
2018-05-23T21:57:49.035Z,4.23
2018-05-23T22:00:16.599Z,4.60
2018-05-23T22:02:44.143Z,4.47
2018-05-23T22:05:11.660Z,4.37
2018-05-23T22:07:39.252Z,5.07
2018-05-23T22:10:07.557Z,4.67
2018-05-23T22:12:35.101Z,4.10
2018-05-23T22:15:02.740Z,4.23
2018-05-23T22:17:30.348Z,4.20
2018-05-23T22:19:58.679Z,4.00
2018-05-23T22:22:27.164Z,4.10
2018-05-23T22:24:54.727Z,4.80
2018-05-23T22:27:23.059Z,4.80
2018-05-23T22:29:56.914Z,4.90
2018-05-23T22:32:24.441Z,5.10
2018-05-23T22:34:52.839Z,4.30
2018-05-23T22:37:20.487Z,4.33
2018-05-23T22:39:48.054Z,4.80
2018-05-23T22:42:15.585Z,3.90
2018-05-23T22:44:43.157Z,4.10
2018-05-23T22:47:10.679Z,8.02
2018-05-23T22:49:38.225Z,3.73
2018-05-23T22:52:05.741Z,3.70
2018-05-23T22:54:33.283Z,4.03
2018-05-23T22:57:00.827Z,4.47
2018-05-23T22:59:29.696Z,4.17
2018-05-23T23:01:57.213Z,4.17
2018-05-23T23:04:26.448Z,4.10
2018-05-23T23:06:54.090Z,4.03
2018-05-23T23:09:21.626Z,4.13
2018-05-23T23:11:49.140Z,4.57
2018-05-23T23:14:16.687Z,4.13
2018-05-23T23:16:44.330Z,3.97
2018-05-23T23:19:12.644Z,4.40
2018-05-23T23:21:40.187Z,3.97
2018-05-23T23:24:07.817Z,4.00
2018-05-23T23:26:36.211Z,3.97
2018-05-23T23:29:03.880Z,4.87
2018-05-23T23:31:32.196Z,4.30
2018-05-23T23:33:59.827Z,4.20
2018-05-23T23:36:27.345Z,3.90
2018-05-23T23:38:55.729Z,4.32
2018-05-23T23:41:23.299Z,4.57
2018-05-23T23:43:50.980Z,3.63
2018-05-23T23:46:18.532Z,4.20
2018-05-23T23:48:46.820Z,4.50
2018-05-23T23:51:14.368Z,4.00
2018-05-23T23:53:41.904Z,4.00
2018-05-23T23:56:09.481Z,3.80
2018-05-23T23:58:39.952Z,4.40
